sensor_id;sensor_type;location;lat;lon;timestamp;temperature;humidity
16479;DHT22;8350;52.316;10.530;2024-02-14T00:01:28;5.70;99.90
16479;DHT22;8350;52.316;10.530;2024-02-14T00:03:55;5.80;99.90
16479;DHT22;8350;52.316;10.530;2024-02-14T00:06:22;5.90;99.90
16479;DHT22;8350;52.316;10.530;2024-02-14T00:08:49;6.00;99.90
16479;DHT22;8350;52.316;10.530;2024-02-14T00:11:16;6.00;99.90
16479;DHT22;8350;52.316;10.530;2024-02-14T00:13:47;6.10;99.90
16479;DHT22;8350;52.316;10.530;2024-02-14T00:16:18;6.10;99.90
16479;DHT22;8350;52.316;10.530;2024-02-14T00:18:45;6.10;99.90
16479;DHT22;8350;52.316;10.530;2024-02-14T00:21:11;6.10;99.90
16479;DHT22;8350;52.316;10.530;2024-02-14T00:23:39;6.20;99.90
16479;DHT22;8350;52.316;10.530;2024-02-14T00:26:06;6.20;99.90
16479;DHT22;8350;52.316;10.530;2024-02-14T00:28:33;6.20;99.90
16479;DHT22;8350;52.316;10.530;2024-02-14T00:31:01;6.20;99.90
16479;DHT22;8350;52.316;10.530;2024-02-14T00:33:28;6.20;99.90
16479;DHT22;8350;52.316;10.530;2024-02-14T00:35:55;6.20;99.90
16479;DHT22;8350;52.316;10.530;2024-02-14T00:38:22;6.20;99.90
16479;DHT22;8350;52.316;10.530;2024-02-14T00:40:49;6.30;99.90
16479;DHT22;8350;52.316;10.530;2024-02-14T00:43:16;6.30;99.90
16479;DHT22;8350;52.316;10.530;2024-02-14T00:45:43;6.30;99.90
16479;DHT22;8350;52.316;10.530;2024-02-14T00:48:11;6.40;99.90
16479;DHT22;8350;52.316;10.530;2024-02-14T00:50:38;6.40;99.90
16479;DHT22;8350;52.316;10.530;2024-02-14T00:53:05;6.30;99.90
16479;DHT22;8350;52.316;10.530;2024-02-14T00:55:32;6.30;99.90
16479;DHT22;8350;52.316;10.530;2024-02-14T00:57:59;6.30;99.90
16479;DHT22;8350;52.316;10.530;2024-02-14T01:00:26;6.30;99.90
16479;DHT22;8350;52.316;10.530;2024-02-14T01:02:53;6.30;99.90
16479;DHT22;8350;52.316;10.530;2024-02-14T01:05:22;6.30;99.90
16479;DHT22;8350;52.316;10.530;2024-02-14T01:07:49;6.30;99.90
16479;DHT22;8350;52.316;10.530;2024-02-14T01:10:16;6.30;99.90
16479;DHT22;8350;52.316;10.530;2024-02-14T01:12:46;6.30;99.90
16479;DHT22;8350;52.316;10.530;2024-02-14T01:15:13;6.30;99.90
16479;DHT22;8350;52.316;10.530;2024-02-14T01:17:42;6.30;99.90
16479;DHT22;8350;52.316;10.530;2024-02-14T01:20:11;6.40;99.90
16479;DHT22;8350;52.316;10.530;2024-02-14T01:22:39;6.40;99.90
16479;DHT22;8350;52.316;10.530;2024-02-14T01:25:06;6.40;99.90
16479;DHT22;8350;52.316;10.530;2024-02-14T01:27:36;6.40;99.90
16479;DHT22;8350;52.316;10.530;2024-02-14T01:30:04;6.50;99.90
16479;DHT22;8350;52.316;10.530;2024-02-14T01:32:31;6.50;99.90
16479;DHT22;8350;52.316;10.530;2024-02-14T01:34:58;6.50;99.90
16479;DHT22;8350;52.316;10.530;2024-02-14T01:37:25;6.50;99.90
16479;DHT22;8350;52.316;10.530;2024-02-14T01:39:54;6.50;99.90
16479;DHT22;8350;52.316;10.530;2024-02-14T01:42:21;6.50;99.90
16479;DHT22;8350;52.316;10.530;2024-02-14T01:44:50;6.50;99.90
16479;DHT22;8350;52.316;10.530;2024-02-14T01:47:19;6.40;99.90
16479;DHT22;8350;52.316;10.530;2024-02-14T01:49:46;6.40;99.90
16479;DHT22;8350;52.316;10.530;2024-02-14T01:52:13;6.40;99.90
16479;DHT22;8350;52.316;10.530;2024-02-14T01:54:41;6.30;99.90
16479;DHT22;8350;52.316;10.530;2024-02-14T01:57:12;6.30;99.90
16479;DHT22;8350;52.316;10.530;2024-02-14T01:59:42;6.20;99.90
16479;DHT22;8350;52.316;10.530;2024-02-14T02:02:11;6.10;99.90
16479;DHT22;8350;52.316;10.530;2024-02-14T02:04:39;6.10;99.90
16479;DHT22;8350;52.316;10.530;2024-02-14T02:07:07;6.10;99.90
16479;DHT22;8350;52.316;10.530;2024-02-14T02:09:36;6.00;99.90
16479;DHT22;8350;52.316;10.530;2024-02-14T02:12:09;5.90;99.90
16479;DHT22;8350;52.316;10.530;2024-02-14T02:14:38;5.90;99.90
16479;DHT22;8350;52.316;10.530;2024-02-14T02:17:06;5.90;99.90
16479;DHT22;8350;52.316;10.530;2024-02-14T02:19:35;6.00;99.90
16479;DHT22;8350;52.316;10.530;2024-02-14T02:22:02;5.90;99.90
16479;DHT22;8350;52.316;10.530;2024-02-14T02:24:32;6.00;99.90
16479;DHT22;8350;52.316;10.530;2024-02-14T02:26:59;6.00;99.90
16479;DHT22;8350;52.316;10.530;2024-02-14T02:29:26;6.00;99.90
16479;DHT22;8350;52.316;10.530;2024-02-14T02:31:53;6.00;99.90
16479;DHT22;8350;52.316;10.530;2024-02-14T02:34:20;6.10;99.90
16479;DHT22;8350;52.316;10.530;2024-02-14T02:36:47;6.10;99.90
16479;DHT22;8350;52.316;10.530;2024-02-14T02:39:18;6.10;99.90
16479;DHT22;8350;52.316;10.530;2024-02-14T02:41:46;6.10;99.90
16479;DHT22;8350;52.316;10.530;2024-02-14T02:44:15;6.10;99.90
16479;DHT22;8350;52.316;10.530;2024-02-14T02:46:42;6.10;99.90
16479;DHT22;8350;52.316;10.530;2024-02-14T02:49:11;6.20;99.90
16479;DHT22;8350;52.316;10.530;2024-02-14T02:51:41;6.20;99.90
16479;DHT22;8350;52.316;10.530;2024-02-14T02:54:10;6.20;99.90
16479;DHT22;8350;52.316;10.530;2024-02-14T02:56:37;6.20;99.90
16479;DHT22;8350;52.316;10.530;2024-02-14T02:59:10;6.20;99.90
16479;DHT22;8350;52.316;10.530;2024-02-14T03:01:39;6.20;99.90
16479;DHT22;8350;52.316;10.530;2024-02-14T03:04:06;6.20;99.90
16479;DHT22;8350;52.316;10.530;2024-02-14T03:06:36;6.20;99.90
16479;DHT22;8350;52.316;10.530;2024-02-14T03:09:03;6.20;99.90
16479;DHT22;8350;52.316;10.530;2024-02-14T03:11:31;6.20;99.90
16479;DHT22;8350;52.316;10.530;2024-02-14T03:14:01;6.20;99.90
16479;DHT22;8350;52.316;10.530;2024-02-14T03:16:29;6.20;99.90
16479;DHT22;8350;52.316;10.530;2024-02-14T03:18:58;6.20;99.90
16479;DHT22;8350;52.316;10.530;2024-02-14T03:21:26;6.20;99.90
16479;DHT22;8350;52.316;10.530;2024-02-14T03:23:54;6.20;99.90
16479;DHT22;8350;52.316;10.530;2024-02-14T03:26:22;6.10;99.90
16479;DHT22;8350;52.316;10.530;2024-02-14T03:28:52;6.20;99.90
16479;DHT22;8350;52.316;10.530;2024-02-14T03:31:21;6.20;99.90
16479;DHT22;8350;52.316;10.530;2024-02-14T03:33:49;6.30;99.90
16479;DHT22;8350;52.316;10.530;2024-02-14T03:36:16;6.30;99.90
16479;DHT22;8350;52.316;10.530;2024-02-14T03:38:43;6.20;99.90
16479;DHT22;8350;52.316;10.530;2024-02-14T03:41:12;6.30;99.90
16479;DHT22;8350;52.316;10.530;2024-02-14T03:43:39;6.30;99.90
16479;DHT22;8350;52.316;10.530;2024-02-14T03:46:06;6.20;99.90
16479;DHT22;8350;52.316;10.530;2024-02-14T03:48:33;6.20;99.90
16479;DHT22;8350;52.316;10.530;2024-02-14T03:51:02;6.30;99.90
16479;DHT22;8350;52.316;10.530;2024-02-14T03:53:29;6.30;99.90
16479;DHT22;8350;52.316;10.530;2024-02-14T03:55:56;6.30;99.90
16479;DHT22;8350;52.316;10.530;2024-02-14T03:58:23;6.30;99.90
16479;DHT22;8350;52.316;10.530;2024-02-14T04:00:50;6.30;99.90
16479;DHT22;8350;52.316;10.530;2024-02-14T04:03:17;6.30;99.90
16479;DHT22;8350;52.316;10.530;2024-02-14T04:05:45;6.30;99.90
16479;DHT22;8350;52.316;10.530;2024-02-14T04:08:14;6.30;99.90
16479;DHT22;8350;52.316;10.530;2024-02-14T04:10:41;6.30;99.90
16479;DHT22;8350;52.316;10.530;2024-02-14T04:13:09;6.30;99.90
16479;DHT22;8350;52.316;10.530;2024-02-14T04:15:36;6.30;99.90
16479;DHT22;8350;52.316;10.530;2024-02-14T04:18:03;6.40;99.90
16479;DHT22;8350;52.316;10.530;2024-02-14T04:20:31;6.30;99.90
16479;DHT22;8350;52.316;10.530;2024-02-14T04:22:58;6.40;99.90
16479;DHT22;8350;52.316;10.530;2024-02-14T04:25:26;6.40;99.90
16479;DHT22;8350;52.316;10.530;2024-02-14T04:27:53;6.40;99.90
16479;DHT22;8350;52.316;10.530;2024-02-14T04:30:20;6.50;99.90
16479;DHT22;8350;52.316;10.530;2024-02-14T04:32:47;6.50;99.90
16479;DHT22;8350;52.316;10.530;2024-02-14T04:35:17;6.50;99.90
16479;DHT22;8350;52.316;10.530;2024-02-14T04:37:44;6.50;99.90
16479;DHT22;8350;52.316;10.530;2024-02-14T04:40:12;6.50;99.90
16479;DHT22;8350;52.316;10.530;2024-02-14T04:42:41;6.50;99.90
16479;DHT22;8350;52.316;10.530;2024-02-14T04:45:08;6.50;99.90
16479;DHT22;8350;52.316;10.530;2024-02-14T04:47:35;6.50;99.90
16479;DHT22;8350;52.316;10.530;2024-02-14T04:50:02;6.40;99.90
16479;DHT22;8350;52.316;10.530;2024-02-14T04:52:29;6.40;99.90
16479;DHT22;8350;52.316;10.530;2024-02-14T04:54:56;6.40;99.90
16479;DHT22;8350;52.316;10.530;2024-02-14T04:57:23;6.40;99.90
16479;DHT22;8350;52.316;10.530;2024-02-14T04:59:52;6.40;99.90
16479;DHT22;8350;52.316;10.530;2024-02-14T05:02:21;6.40;99.90
16479;DHT22;8350;52.316;10.530;2024-02-14T05:04:48;6.40;99.90
16479;DHT22;8350;52.316;10.530;2024-02-14T05:07:15;6.40;99.90
16479;DHT22;8350;52.316;10.530;2024-02-14T05:09:42;6.40;99.90
16479;DHT22;8350;52.316;10.530;2024-02-14T05:12:09;6.40;99.90
16479;DHT22;8350;52.316;10.530;2024-02-14T05:14:38;6.30;99.90
16479;DHT22;8350;52.316;10.530;2024-02-14T05:17:07;6.30;99.90
16479;DHT22;8350;52.316;10.530;2024-02-14T05:19:34;6.40;99.90
16479;DHT22;8350;52.316;10.530;2024-02-14T05:22:04;6.40;99.90
16479;DHT22;8350;52.316;10.530;2024-02-14T05:24:32;6.50;99.90
16479;DHT22;8350;52.316;10.530;2024-02-14T05:27:01;6.50;99.90
16479;DHT22;8350;52.316;10.530;2024-02-14T05:29:30;6.50;99.90
16479;DHT22;8350;52.316;10.530;2024-02-14T05:31:57;6.60;99.90
16479;DHT22;8350;52.316;10.530;2024-02-14T05:34:26;6.60;99.90
16479;DHT22;8350;52.316;10.530;2024-02-14T05:36:53;6.60;99.90
16479;DHT22;8350;52.316;10.530;2024-02-14T05:39:20;6.60;99.90
16479;DHT22;8350;52.316;10.530;2024-02-14T05:41:47;6.60;99.90
16479;DHT22;8350;52.316;10.530;2024-02-14T05:44:16;6.60;99.90
16479;DHT22;8350;52.316;10.530;2024-02-14T05:46:43;6.60;99.90
16479;DHT22;8350;52.316;10.530;2024-02-14T05:49:10;6.60;99.90
16479;DHT22;8350;52.316;10.530;2024-02-14T05:51:39;6.60;99.90
16479;DHT22;8350;52.316;10.530;2024-02-14T05:54:06;6.50;99.90
16479;DHT22;8350;52.316;10.530;2024-02-14T05:56:33;6.50;99.90
16479;DHT22;8350;52.316;10.530;2024-02-14T05:59:02;6.50;99.90
16479;DHT22;8350;52.316;10.530;2024-02-14T06:01:29;6.50;99.90
16479;DHT22;8350;52.316;10.530;2024-02-14T06:03:55;6.60;99.90
16479;DHT22;8350;52.316;10.530;2024-02-14T06:06:23;6.50;99.90
16479;DHT22;8350;52.316;10.530;2024-02-14T06:08:53;6.60;99.90
16479;DHT22;8350;52.316;10.530;2024-02-14T06:11:20;6.60;99.90
16479;DHT22;8350;52.316;10.530;2024-02-14T06:13:47;6.50;99.90
16479;DHT22;8350;52.316;10.530;2024-02-14T06:16:15;6.60;99.90
16479;DHT22;8350;52.316;10.530;2024-02-14T06:18:42;6.60;99.90
16479;DHT22;8350;52.316;10.530;2024-02-14T06:21:09;6.60;99.90
16479;DHT22;8350;52.316;10.530;2024-02-14T06:23:36;6.60;99.90
16479;DHT22;8350;52.316;10.530;2024-02-14T06:26:07;6.60;99.90
16479;DHT22;8350;52.316;10.530;2024-02-14T06:28:33;6.60;99.90
16479;DHT22;8350;52.316;10.530;2024-02-14T06:31:00;6.60;99.90
16479;DHT22;8350;52.316;10.530;2024-02-14T06:33:27;6.60;99.90
16479;DHT22;8350;52.316;10.530;2024-02-14T06:35:54;6.60;99.90
16479;DHT22;8350;52.316;10.530;2024-02-14T06:38:21;6.70;99.90
16479;DHT22;8350;52.316;10.530;2024-02-14T06:40:48;6.70;99.90
16479;DHT22;8350;52.316;10.530;2024-02-14T06:43:17;6.70;99.90
16479;DHT22;8350;52.316;10.530;2024-02-14T06:45:45;6.70;99.90
16479;DHT22;8350;52.316;10.530;2024-02-14T06:48:12;6.70;99.90
16479;DHT22;8350;52.316;10.530;2024-02-14T06:50:41;6.70;99.90
16479;DHT22;8350;52.316;10.530;2024-02-14T06:53:12;6.70;99.90
16479;DHT22;8350;52.316;10.530;2024-02-14T06:55:41;6.70;99.90
16479;DHT22;8350;52.316;10.530;2024-02-14T06:58:08;6.80;99.90
16479;DHT22;8350;52.316;10.530;2024-02-14T07:00:36;6.80;99.90
16479;DHT22;8350;52.316;10.530;2024-02-14T07:03:06;6.80;99.90
16479;DHT22;8350;52.316;10.530;2024-02-14T07:05:33;6.80;99.90
16479;DHT22;8350;52.316;10.530;2024-02-14T07:08:00;6.80;99.90
16479;DHT22;8350;52.316;10.530;2024-02-14T07:10:29;6.80;99.90
16479;DHT22;8350;52.316;10.530;2024-02-14T07:12:55;6.80;99.90
16479;DHT22;8350;52.316;10.530;2024-02-14T07:15:22;6.80;99.90
16479;DHT22;8350;52.316;10.530;2024-02-14T07:17:55;6.90;99.90
16479;DHT22;8350;52.316;10.530;2024-02-14T07:20:23;6.90;99.90
16479;DHT22;8350;52.316;10.530;2024-02-14T07:22:51;6.80;99.90
16479;DHT22;8350;52.316;10.530;2024-02-14T07:25:19;6.80;99.90
16479;DHT22;8350;52.316;10.530;2024-02-14T07:27:46;6.90;99.90
16479;DHT22;8350;52.316;10.530;2024-02-14T07:30:15;6.90;99.90
16479;DHT22;8350;52.316;10.530;2024-02-14T07:32:42;6.90;99.90
16479;DHT22;8350;52.316;10.530;2024-02-14T07:35:10;6.90;99.90
16479;DHT22;8350;52.316;10.530;2024-02-14T07:37:38;6.90;99.90
16479;DHT22;8350;52.316;10.530;2024-02-14T07:40:06;6.90;99.90
16479;DHT22;8350;52.316;10.530;2024-02-14T07:42:33;7.00;99.90
16479;DHT22;8350;52.316;10.530;2024-02-14T07:45:03;6.90;99.90
16479;DHT22;8350;52.316;10.530;2024-02-14T07:47:32;6.90;99.90
16479;DHT22;8350;52.316;10.530;2024-02-14T07:49:59;6.90;99.90
16479;DHT22;8350;52.316;10.530;2024-02-14T07:52:27;6.90;99.90
16479;DHT22;8350;52.316;10.530;2024-02-14T07:54:55;7.00;99.90
16479;DHT22;8350;52.316;10.530;2024-02-14T07:57:24;7.00;99.90
16479;DHT22;8350;52.316;10.530;2024-02-14T07:59:51;7.00;99.90
16479;DHT22;8350;52.316;10.530;2024-02-14T08:02:19;7.00;99.90
16479;DHT22;8350;52.316;10.530;2024-02-14T08:04:46;7.00;99.90
16479;DHT22;8350;52.316;10.530;2024-02-14T08:07:16;7.00;99.90
16479;DHT22;8350;52.316;10.530;2024-02-14T08:09:44;7.10;99.90
16479;DHT22;8350;52.316;10.530;2024-02-14T08:12:12;7.10;99.90
16479;DHT22;8350;52.316;10.530;2024-02-14T08:14:39;7.10;99.90
16479;DHT22;8350;52.316;10.530;2024-02-14T08:17:06;7.10;99.90
16479;DHT22;8350;52.316;10.530;2024-02-14T08:19:32;7.20;99.90
16479;DHT22;8350;52.316;10.530;2024-02-14T08:22:04;7.20;99.90
16479;DHT22;8350;52.316;10.530;2024-02-14T08:24:32;7.30;99.90
16479;DHT22;8350;52.316;10.530;2024-02-14T08:27:00;7.30;99.90
16479;DHT22;8350;52.316;10.530;2024-02-14T08:29:27;7.20;99.90
16479;DHT22;8350;52.316;10.530;2024-02-14T08:31:54;7.30;99.90
16479;DHT22;8350;52.316;10.530;2024-02-14T08:34:21;7.30;99.90
16479;DHT22;8350;52.316;10.530;2024-02-14T08:36:48;7.30;99.90
16479;DHT22;8350;52.316;10.530;2024-02-14T08:39:14;7.30;99.90
16479;DHT22;8350;52.316;10.530;2024-02-14T08:41:50;7.30;99.90
16479;DHT22;8350;52.316;10.530;2024-02-14T08:44:18;7.30;99.90
16479;DHT22;8350;52.316;10.530;2024-02-14T08:46:47;7.40;99.90
16479;DHT22;8350;52.316;10.530;2024-02-14T08:49:15;7.40;99.90
16479;DHT22;8350;52.316;10.530;2024-02-14T08:51:41;7.40;99.90
16479;DHT22;8350;52.316;10.530;2024-02-14T08:54:09;7.40;99.90
16479;DHT22;8350;52.316;10.530;2024-02-14T08:56:36;7.50;99.90
16479;DHT22;8350;52.316;10.530;2024-02-14T08:59:04;7.50;99.90
16479;DHT22;8350;52.316;10.530;2024-02-14T09:01:33;7.50;99.90
16479;DHT22;8350;52.316;10.530;2024-02-14T09:04:01;7.60;99.90
16479;DHT22;8350;52.316;10.530;2024-02-14T09:06:28;7.60;99.90
16479;DHT22;8350;52.316;10.530;2024-02-14T09:08:55;7.60;99.90
16479;DHT22;8350;52.316;10.530;2024-02-14T09:11:22;7.50;99.90
16479;DHT22;8350;52.316;10.530;2024-02-14T09:13:52;7.50;99.90
16479;DHT22;8350;52.316;10.530;2024-02-14T09:16:21;7.50;99.90
16479;DHT22;8350;52.316;10.530;2024-02-14T09:18:52;7.60;99.90
16479;DHT22;8350;52.316;10.530;2024-02-14T09:21:19;7.60;99.90
16479;DHT22;8350;52.316;10.530;2024-02-14T09:23:47;7.60;99.90
16479;DHT22;8350;52.316;10.530;2024-02-14T09:26:14;7.60;99.90
16479;DHT22;8350;52.316;10.530;2024-02-14T09:28:42;7.60;99.90
16479;DHT22;8350;52.316;10.530;2024-02-14T09:31:08;7.70;99.90
16479;DHT22;8350;52.316;10.530;2024-02-14T09:33:37;7.70;99.90
16479;DHT22;8350;52.316;10.530;2024-02-14T09:36:08;7.70;99.90
16479;DHT22;8350;52.316;10.530;2024-02-14T09:38:35;7.80;99.90
16479;DHT22;8350;52.316;10.530;2024-02-14T09:41:09;7.80;99.90
16479;DHT22;8350;52.316;10.530;2024-02-14T09:43:38;7.80;99.90
16479;DHT22;8350;52.316;10.530;2024-02-14T09:46:08;7.90;99.90
16479;DHT22;8350;52.316;10.530;2024-02-14T09:48:36;7.90;99.90
16479;DHT22;8350;52.316;10.530;2024-02-14T09:51:09;7.90;99.90
16479;DHT22;8350;52.316;10.530;2024-02-14T09:53:41;8.00;99.90
16479;DHT22;8350;52.316;10.530;2024-02-14T09:56:10;8.00;99.90
16479;DHT22;8350;52.316;10.530;2024-02-14T09:58:40;8.10;99.90
16479;DHT22;8350;52.316;10.530;2024-02-14T10:01:07;8.20;99.90
16479;DHT22;8350;52.316;10.530;2024-02-14T10:03:35;8.30;99.90
16479;DHT22;8350;52.316;10.530;2024-02-14T10:06:02;8.40;99.90
16479;DHT22;8350;52.316;10.530;2024-02-14T10:08:32;8.40;99.90
16479;DHT22;8350;52.316;10.530;2024-02-14T10:10:59;8.40;99.90
16479;DHT22;8350;52.316;10.530;2024-02-14T10:13:27;8.40;99.90
16479;DHT22;8350;52.316;10.530;2024-02-14T10:15:58;8.40;99.90
16479;DHT22;8350;52.316;10.530;2024-02-14T10:18:25;8.50;99.90
16479;DHT22;8350;52.316;10.530;2024-02-14T10:20:53;8.40;99.90
16479;DHT22;8350;52.316;10.530;2024-02-14T10:23:20;8.40;99.90
16479;DHT22;8350;52.316;10.530;2024-02-14T10:25:50;8.40;99.90
16479;DHT22;8350;52.316;10.530;2024-02-14T10:28:17;8.40;99.90
16479;DHT22;8350;52.316;10.530;2024-02-14T10:30:46;8.50;99.90
16479;DHT22;8350;52.316;10.530;2024-02-14T10:33:14;8.50;99.90
16479;DHT22;8350;52.316;10.530;2024-02-14T10:35:42;8.50;99.90
16479;DHT22;8350;52.316;10.530;2024-02-14T10:38:11;8.50;99.90
16479;DHT22;8350;52.316;10.530;2024-02-14T10:40:40;8.60;99.90
16479;DHT22;8350;52.316;10.530;2024-02-14T10:43:10;8.60;99.90
16479;DHT22;8350;52.316;10.530;2024-02-14T10:45:38;8.60;99.90
16479;DHT22;8350;52.316;10.530;2024-02-14T10:48:06;8.60;99.90
16479;DHT22;8350;52.316;10.530;2024-02-14T10:50:34;8.70;99.90
16479;DHT22;8350;52.316;10.530;2024-02-14T10:53:05;8.80;99.90
16479;DHT22;8350;52.316;10.530;2024-02-14T10:55:33;8.90;99.90
16479;DHT22;8350;52.316;10.530;2024-02-14T10:58:01;9.00;99.90
16479;DHT22;8350;52.316;10.530;2024-02-14T11:00:33;9.10;99.90
16479;DHT22;8350;52.316;10.530;2024-02-14T11:03:00;9.20;99.90
16479;DHT22;8350;52.316;10.530;2024-02-14T11:05:27;9.30;99.90
16479;DHT22;8350;52.316;10.530;2024-02-14T11:07:57;9.40;99.90
16479;DHT22;8350;52.316;10.530;2024-02-14T11:10:37;9.50;99.90
16479;DHT22;8350;52.316;10.530;2024-02-14T11:13:10;9.60;99.90
16479;DHT22;8350;52.316;10.530;2024-02-14T11:15:46;9.60;99.90
16479;DHT22;8350;52.316;10.530;2024-02-14T11:18:24;9.70;99.90
16479;DHT22;8350;52.316;10.530;2024-02-14T11:20:52;9.80;99.90
16479;DHT22;8350;52.316;10.530;2024-02-14T11:23:21;9.90;99.90
16479;DHT22;8350;52.316;10.530;2024-02-14T11:25:59;9.90;99.90
16479;DHT22;8350;52.316;10.530;2024-02-14T11:28:28;9.90;99.90
16479;DHT22;8350;52.316;10.530;2024-02-14T11:31:00;9.90;99.90
16479;DHT22;8350;52.316;10.530;2024-02-14T11:33:29;10.00;99.90
16479;DHT22;8350;52.316;10.530;2024-02-14T11:35:56;10.00;99.90
16479;DHT22;8350;52.316;10.530;2024-02-14T11:38:24;10.10;99.90
16479;DHT22;8350;52.316;10.530;2024-02-14T11:40:54;10.20;99.90
16479;DHT22;8350;52.316;10.530;2024-02-14T11:43:22;10.10;99.90
16479;DHT22;8350;52.316;10.530;2024-02-14T11:45:49;10.10;99.90
16479;DHT22;8350;52.316;10.530;2024-02-14T11:48:19;10.20;99.90
16479;DHT22;8350;52.316;10.530;2024-02-14T11:50:47;10.30;99.90
16479;DHT22;8350;52.316;10.530;2024-02-14T11:53:15;10.30;99.90
16479;DHT22;8350;52.316;10.530;2024-02-14T11:55:46;10.30;99.90
16479;DHT22;8350;52.316;10.530;2024-02-14T11:58:14;10.30;99.90
16479;DHT22;8350;52.316;10.530;2024-02-14T12:00:42;10.30;99.90
16479;DHT22;8350;52.316;10.530;2024-02-14T12:03:12;10.30;99.90
16479;DHT22;8350;52.316;10.530;2024-02-14T12:05:40;10.40;99.90
16479;DHT22;8350;52.316;10.530;2024-02-14T12:08:09;10.40;99.90
16479;DHT22;8350;52.316;10.530;2024-02-14T12:10:39;10.50;99.90
16479;DHT22;8350;52.316;10.530;2024-02-14T12:13:08;10.50;99.90
16479;DHT22;8350;52.316;10.530;2024-02-14T12:15:38;10.60;99.90
16479;DHT22;8350;52.316;10.530;2024-02-14T12:18:05;10.60;99.90
16479;DHT22;8350;52.316;10.530;2024-02-14T12:20:32;10.70;99.90
16479;DHT22;8350;52.316;10.530;2024-02-14T12:23:00;10.80;99.90
16479;DHT22;8350;52.316;10.530;2024-02-14T12:25:27;10.80;99.90
16479;DHT22;8350;52.316;10.530;2024-02-14T12:27:56;10.80;99.90
16479;DHT22;8350;52.316;10.530;2024-02-14T12:30:43;10.80;99.90
16479;DHT22;8350;52.316;10.530;2024-02-14T12:33:11;10.80;99.90
16479;DHT22;8350;52.316;10.530;2024-02-14T12:35:41;10.80;99.90
16479;DHT22;8350;52.316;10.530;2024-02-14T12:38:11;10.80;99.90
16479;DHT22;8350;52.316;10.530;2024-02-14T12:40:40;10.70;99.90
16479;DHT22;8350;52.316;10.530;2024-02-14T12:43:18;10.70;99.90
16479;DHT22;8350;52.316;10.530;2024-02-14T12:45:46;10.70;99.90
16479;DHT22;8350;52.316;10.530;2024-02-14T12:48:22;10.80;99.90
16479;DHT22;8350;52.316;10.530;2024-02-14T12:50:52;10.80;99.90
16479;DHT22;8350;52.316;10.530;2024-02-14T12:53:20;10.90;99.90
16479;DHT22;8350;52.316;10.530;2024-02-14T12:55:47;10.80;99.90
16479;DHT22;8350;52.316;10.530;2024-02-14T12:58:18;10.90;99.90
16479;DHT22;8350;52.316;10.530;2024-02-14T13:00:49;11.00;99.90
16479;DHT22;8350;52.316;10.530;2024-02-14T13:03:17;11.00;99.90
16479;DHT22;8350;52.316;10.530;2024-02-14T13:05:45;11.00;99.90
16479;DHT22;8350;52.316;10.530;2024-02-14T13:08:15;11.00;99.90
16479;DHT22;8350;52.316;10.530;2024-02-14T13:10:44;10.90;99.90
16479;DHT22;8350;52.316;10.530;2024-02-14T13:13:11;11.00;99.90
16479;DHT22;8350;52.316;10.530;2024-02-14T13:15:40;11.00;99.90
16479;DHT22;8350;52.316;10.530;2024-02-14T13:18:08;11.00;99.90
16479;DHT22;8350;52.316;10.530;2024-02-14T13:20:35;11.00;99.90
16479;DHT22;8350;52.316;10.530;2024-02-14T13:23:03;11.00;99.90
16479;DHT22;8350;52.316;10.530;2024-02-14T13:25:34;11.00;99.90
16479;DHT22;8350;52.316;10.530;2024-02-14T13:28:04;11.00;99.90
16479;DHT22;8350;52.316;10.530;2024-02-14T13:30:33;11.00;99.90
16479;DHT22;8350;52.316;10.530;2024-02-14T13:32:59;11.10;99.90
16479;DHT22;8350;52.316;10.530;2024-02-14T13:35:29;11.10;99.90
16479;DHT22;8350;52.316;10.530;2024-02-14T13:37:57;11.20;99.90
16479;DHT22;8350;52.316;10.530;2024-02-14T13:40:24;11.10;99.90
16479;DHT22;8350;52.316;10.530;2024-02-14T13:42:52;11.10;99.90
16479;DHT22;8350;52.316;10.530;2024-02-14T13:45:20;11.10;99.90
16479;DHT22;8350;52.316;10.530;2024-02-14T13:47:50;11.10;99.90
16479;DHT22;8350;52.316;10.530;2024-02-14T13:50:19;11.10;99.90
16479;DHT22;8350;52.316;10.530;2024-02-14T13:52:46;11.20;99.90
16479;DHT22;8350;52.316;10.530;2024-02-14T13:55:13;11.20;99.90
16479;DHT22;8350;52.316;10.530;2024-02-14T13:57:40;11.10;99.90
16479;DHT22;8350;52.316;10.530;2024-02-14T14:00:10;11.00;99.90
16479;DHT22;8350;52.316;10.530;2024-02-14T14:02:38;10.90;99.90
16479;DHT22;8350;52.316;10.530;2024-02-14T14:05:09;10.80;99.90
16479;DHT22;8350;52.316;10.530;2024-02-14T14:07:36;10.70;99.90
16479;DHT22;8350;52.316;10.530;2024-02-14T14:10:11;10.70;99.90
16479;DHT22;8350;52.316;10.530;2024-02-14T14:12:38;10.60;99.90
16479;DHT22;8350;52.316;10.530;2024-02-14T14:15:08;10.70;99.90
16479;DHT22;8350;52.316;10.530;2024-02-14T14:17:38;10.70;99.90
16479;DHT22;8350;52.316;10.530;2024-02-14T14:20:07;10.70;99.90
16479;DHT22;8350;52.316;10.530;2024-02-14T14:22:34;10.70;99.90
16479;DHT22;8350;52.316;10.530;2024-02-14T14:25:04;10.70;99.90
16479;DHT22;8350;52.316;10.530;2024-02-14T14:27:34;10.60;99.90
16479;DHT22;8350;52.316;10.530;2024-02-14T14:30:02;10.60;99.90
16479;DHT22;8350;52.316;10.530;2024-02-14T14:32:32;10.50;99.90
16479;DHT22;8350;52.316;10.530;2024-02-14T14:35:00;10.60;99.90
16479;DHT22;8350;52.316;10.530;2024-02-14T14:37:27;10.60;99.90
16479;DHT22;8350;52.316;10.530;2024-02-14T14:39:54;10.50;99.90
16479;DHT22;8350;52.316;10.530;2024-02-14T14:42:21;10.50;99.90
16479;DHT22;8350;52.316;10.530;2024-02-14T14:44:49;10.50;99.90
16479;DHT22;8350;52.316;10.530;2024-02-14T14:47:16;10.50;99.90
16479;DHT22;8350;52.316;10.530;2024-02-14T14:49:42;10.40;99.90
16479;DHT22;8350;52.316;10.530;2024-02-14T14:52:11;10.40;99.90
16479;DHT22;8350;52.316;10.530;2024-02-14T14:54:38;10.50;99.90
16479;DHT22;8350;52.316;10.530;2024-02-14T14:57:05;10.50;99.90
16479;DHT22;8350;52.316;10.530;2024-02-14T14:59:37;10.50;99.90
16479;DHT22;8350;52.316;10.530;2024-02-14T15:02:06;10.50;99.90
16479;DHT22;8350;52.316;10.530;2024-02-14T15:04:33;10.50;99.90
16479;DHT22;8350;52.316;10.530;2024-02-14T15:07:02;10.50;99.90
16479;DHT22;8350;52.316;10.530;2024-02-14T15:09:32;10.50;99.90
16479;DHT22;8350;52.316;10.530;2024-02-14T15:11:58;10.50;99.90
16479;DHT22;8350;52.316;10.530;2024-02-14T15:14:25;10.60;99.90
16479;DHT22;8350;52.316;10.530;2024-02-14T15:16:52;10.50;99.90
16479;DHT22;8350;52.316;10.530;2024-02-14T15:19:19;10.60;99.90
16479;DHT22;8350;52.316;10.530;2024-02-14T15:21:47;10.60;99.90
16479;DHT22;8350;52.316;10.530;2024-02-14T15:24:16;10.60;99.90
16479;DHT22;8350;52.316;10.530;2024-02-14T15:26:46;10.60;99.90
16479;DHT22;8350;52.316;10.530;2024-02-14T15:29:18;10.60;99.90
16479;DHT22;8350;52.316;10.530;2024-02-14T15:32:03;10.60;99.90
16479;DHT22;8350;52.316;10.530;2024-02-14T15:34:47;10.50;99.90
16479;DHT22;8350;52.316;10.530;2024-02-14T15:37:14;10.50;99.90
16479;DHT22;8350;52.316;10.530;2024-02-14T15:39:43;10.50;99.90
16479;DHT22;8350;52.316;10.530;2024-02-14T15:42:13;10.50;99.90
16479;DHT22;8350;52.316;10.530;2024-02-14T15:44:42;10.50;99.90
16479;DHT22;8350;52.316;10.530;2024-02-14T15:47:10;10.40;99.90
16479;DHT22;8350;52.316;10.530;2024-02-14T15:49:38;10.40;99.90